sensor_id;sensor_type;location;lat;lon;timestamp;P1;durP1;ratioP1;P2;durP2;ratioP2
61383;SDS011;63511;49.346;8.798;2022-11-21T00:00:29;10.32;;;5.88;;
61383;SDS011;63511;49.346;8.798;2022-11-21T00:02:59;22.55;;;9.30;;
61383;SDS011;63511;49.346;8.798;2022-11-21T00:05:28;18.23;;;11.57;;
61383;SDS011;63511;49.346;8.798;2022-11-21T00:07:57;19.42;;;11.43;;
61383;SDS011;63511;49.346;8.798;2022-11-21T00:10:23;12.23;;;7.18;;
61383;SDS011;63511;49.346;8.798;2022-11-21T00:12:53;10.15;;;4.30;;
61383;SDS011;63511;49.346;8.798;2022-11-21T00:15:20;3.13;;;2.42;;
61383;SDS011;63511;49.346;8.798;2022-11-21T00:17:48;6.00;;;2.53;;
61383;SDS011;63511;49.346;8.798;2022-11-21T00:20:16;13.52;;;1.95;;
61383;SDS011;63511;49.346;8.798;2022-11-21T00:22:43;8.70;;;1.83;;
61383;SDS011;63511;49.346;8.798;2022-11-21T00:25:10;5.78;;;1.67;;
61383;SDS011;63511;49.346;8.798;2022-11-21T00:27:40;9.25;;;2.28;;
61383;SDS011;63511;49.346;8.798;2022-11-21T00:30:07;3.83;;;1.73;;
61383;SDS011;63511;49.346;8.798;2022-11-21T00:32:33;7.18;;;2.88;;
61383;SDS011;63511;49.346;8.798;2022-11-21T00:34:59;7.28;;;2.00;;
61383;SDS011;63511;49.346;8.798;2022-11-21T00:37:24;10.52;;;2.75;;
61383;SDS011;63511;49.346;8.798;2022-11-21T00:39:50;7.75;;;2.63;;
61383;SDS011;63511;49.346;8.798;2022-11-21T00:42:17;10.45;;;2.78;;
61383;SDS011;63511;49.346;8.798;2022-11-21T00:44:43;5.15;;;2.35;;
61383;SDS011;63511;49.346;8.798;2022-11-21T00:47:10;8.32;;;2.47;;
61383;SDS011;63511;49.346;8.798;2022-11-21T00:49:36;4.35;;;1.38;;
61383;SDS011;63511;49.346;8.798;2022-11-21T00:52:01;12.48;;;3.75;;
61383;SDS011;63511;49.346;8.798;2022-11-21T00:54:26;4.68;;;1.05;;
61383;SDS011;63511;49.346;8.798;2022-11-21T00:56:51;5.25;;;1.20;;
61383;SDS011;63511;49.346;8.798;2022-11-21T00:59:17;3.85;;;1.13;;
61383;SDS011;63511;49.346;8.798;2022-11-21T01:01:43;5.78;;;1.25;;
61383;SDS011;63511;49.346;8.798;2022-11-21T01:04:08;4.35;;;1.27;;
61383;SDS011;63511;49.346;8.798;2022-11-21T01:06:35;4.88;;;1.13;;
61383;SDS011;63511;49.346;8.798;2022-11-21T01:09:03;3.20;;;1.38;;
61383;SDS011;63511;49.346;8.798;2022-11-21T01:11:29;16.75;;;1.75;;
61383;SDS011;63511;49.346;8.798;2022-11-21T01:16:24;8.00;;;1.90;;
61383;SDS011;63511;49.346;8.798;2022-11-21T01:18:53;4.45;;;1.45;;
61383;SDS011;63511;49.346;8.798;2022-11-21T01:21:22;9.07;;;3.65;;
61383;SDS011;63511;49.346;8.798;2022-11-21T01:23:54;12.48;;;1.38;;
61383;SDS011;63511;49.346;8.798;2022-11-21T01:26:21;6.43;;;1.48;;
61383;SDS011;63511;49.346;8.798;2022-11-21T01:28:48;7.53;;;1.85;;
61383;SDS011;63511;49.346;8.798;2022-11-21T01:31:16;5.15;;;1.52;;
61383;SDS011;63511;49.346;8.798;2022-11-21T01:33:44;15.73;;;2.65;;
61383;SDS011;63511;49.346;8.798;2022-11-21T01:38:44;5.85;;;1.42;;
61383;SDS011;63511;49.346;8.798;2022-11-21T01:41:13;6.30;;;1.30;;
61383;SDS011;63511;49.346;8.798;2022-11-21T01:43:41;15.70;;;1.50;;
61383;SDS011;63511;49.346;8.798;2022-11-21T01:46:21;3.70;;;1.45;;
61383;SDS011;63511;49.346;8.798;2022-11-21T01:53:52;3.13;;;1.00;;
61383;SDS011;63511;49.346;8.798;2022-11-21T01:56:32;5.47;;;1.38;;
61383;SDS011;63511;49.346;8.798;2022-11-21T01:59:08;6.53;;;1.98;;
61383;SDS011;63511;49.346;8.798;2022-11-21T02:01:42;3.40;;;1.30;;
61383;SDS011;63511;49.346;8.798;2022-11-21T02:04:09;4.00;;;1.73;;
61383;SDS011;63511;49.346;8.798;2022-11-21T02:06:37;6.78;;;1.42;;
61383;SDS011;63511;49.346;8.798;2022-11-21T02:09:07;4.57;;;2.03;;
61383;SDS011;63511;49.346;8.798;2022-11-21T02:11:37;10.52;;;1.55;;
61383;SDS011;63511;49.346;8.798;2022-11-21T02:16:33;1.63;;;0.85;;
61383;SDS011;63511;49.346;8.798;2022-11-21T02:18:59;4.88;;;1.10;;
61383;SDS011;63511;49.346;8.798;2022-11-21T02:24:22;2.20;;;0.70;;
61383;SDS011;63511;49.346;8.798;2022-11-21T02:26:53;5.78;;;1.23;;
61383;SDS011;63511;49.346;8.798;2022-11-21T02:29:19;4.40;;;1.15;;
61383;SDS011;63511;49.346;8.798;2022-11-21T02:31:44;5.25;;;1.10;;
61383;SDS011;63511;49.346;8.798;2022-11-21T02:34:14;2.10;;;0.65;;
61383;SDS011;63511;49.346;8.798;2022-11-21T02:36:43;7.23;;;1.60;;
61383;SDS011;63511;49.346;8.798;2022-11-21T02:39:12;5.75;;;1.55;;
61383;SDS011;63511;49.346;8.798;2022-11-21T02:41:54;3.92;;;1.42;;
61383;SDS011;63511;49.346;8.798;2022-11-21T02:44:31;5.82;;;1.13;;
61383;SDS011;63511;49.346;8.798;2022-11-21T02:47:04;5.95;;;2.00;;
61383;SDS011;63511;49.346;8.798;2022-11-21T02:52:43;5.47;;;1.58;;
61383;SDS011;63511;49.346;8.798;2022-11-21T02:55:10;3.38;;;1.25;;
61383;SDS011;63511;49.346;8.798;2022-11-21T02:57:37;4.45;;;1.00;;
61383;SDS011;63511;49.346;8.798;2022-11-21T03:00:03;3.45;;;1.30;;
61383;SDS011;63511;49.346;8.798;2022-11-21T03:02:31;7.53;;;1.33;;
61383;SDS011;63511;49.346;8.798;2022-11-21T03:04:56;3.95;;;1.58;;
61383;SDS011;63511;49.346;8.798;2022-11-21T03:07:22;6.35;;;2.40;;
61383;SDS011;63511;49.346;8.798;2022-11-21T03:09:49;1.63;;;1.40;;
61383;SDS011;63511;49.346;8.798;2022-11-21T03:12:17;3.78;;;1.27;;
61383;SDS011;63511;49.346;8.798;2022-11-21T03:14:45;5.53;;;1.43;;
61383;SDS011;63511;49.346;8.798;2022-11-21T03:17:14;8.17;;;1.57;;
61383;SDS011;63511;49.346;8.798;2022-11-21T03:19:40;10.82;;;1.80;;
61383;SDS011;63511;49.346;8.798;2022-11-21T03:22:05;5.13;;;1.10;;
61383;SDS011;63511;49.346;8.798;2022-11-21T03:24:33;10.80;;;1.20;;
61383;SDS011;63511;49.346;8.798;2022-11-21T03:26:59;7.45;;;1.30;;
61383;SDS011;63511;49.346;8.798;2022-11-21T03:29:24;6.35;;;1.67;;
61383;SDS011;63511;49.346;8.798;2022-11-21T03:31:49;6.68;;;1.70;;
61383;SDS011;63511;49.346;8.798;2022-11-21T03:34:19;5.20;;;1.00;;
61383;SDS011;63511;49.346;8.798;2022-11-21T03:36:45;5.85;;;0.95;;
61383;SDS011;63511;49.346;8.798;2022-11-21T03:39:10;5.15;;;1.52;;
61383;SDS011;63511;49.346;8.798;2022-11-21T03:41:37;6.28;;;1.20;;
61383;SDS011;63511;49.346;8.798;2022-11-21T03:44:04;5.07;;;1.08;;
61383;SDS011;63511;49.346;8.798;2022-11-21T03:46:32;2.97;;;0.80;;
61383;SDS011;63511;49.346;8.798;2022-11-21T03:48:58;3.28;;;0.70;;
61383;SDS011;63511;49.346;8.798;2022-11-21T03:51:26;2.65;;;0.82;;
61383;SDS011;63511;49.346;8.798;2022-11-21T03:53:52;4.15;;;0.50;;
61383;SDS011;63511;49.346;8.798;2022-11-21T03:56:22;1.98;;;0.77;;
61383;SDS011;63511;49.346;8.798;2022-11-21T03:58:48;2.53;;;0.85;;
61383;SDS011;63511;49.346;8.798;2022-11-21T04:01:13;3.20;;;0.65;;
61383;SDS011;63511;49.346;8.798;2022-11-21T04:03:39;3.58;;;0.93;;
61383;SDS011;63511;49.346;8.798;2022-11-21T04:06:09;3.70;;;0.80;;
61383;SDS011;63511;49.346;8.798;2022-11-21T04:08:38;3.37;;;0.60;;
61383;SDS011;63511;49.346;8.798;2022-11-21T04:11:04;1.67;;;0.52;;
61383;SDS011;63511;49.346;8.798;2022-11-21T04:13:32;2.63;;;1.00;;
61383;SDS011;63511;49.346;8.798;2022-11-21T04:16:00;1.45;;;0.60;;
61383;SDS011;63511;49.346;8.798;2022-11-21T04:18:25;1.83;;;0.82;;
61383;SDS011;63511;49.346;8.798;2022-11-21T04:20:57;1.25;;;0.65;;
61383;SDS011;63511;49.346;8.798;2022-11-21T04:23:25;4.70;;;0.65;;
61383;SDS011;63511;49.346;8.798;2022-11-21T04:25:51;2.42;;;0.70;;
61383;SDS011;63511;49.346;8.798;2022-11-21T04:28:22;2.85;;;0.73;;
61383;SDS011;63511;49.346;8.798;2022-11-21T04:30:47;7.15;;;0.75;;
61383;SDS011;63511;49.346;8.798;2022-11-21T04:33:14;0.93;;;0.50;;
61383;SDS011;63511;49.346;8.798;2022-11-21T04:35:41;1.63;;;0.80;;
61383;SDS011;63511;49.346;8.798;2022-11-21T04:38:07;4.93;;;0.73;;
61383;SDS011;63511;49.346;8.798;2022-11-21T04:40:33;1.83;;;0.60;;
61383;SDS011;63511;49.346;8.798;2022-11-21T04:42:59;4.68;;;0.80;;
61383;SDS011;63511;49.346;8.798;2022-11-21T04:45:24;1.20;;;0.90;;
61383;SDS011;63511;49.346;8.798;2022-11-21T04:47:49;1.98;;;0.65;;
61383;SDS011;63511;49.346;8.798;2022-11-21T04:50:17;2.42;;;0.77;;
61383;SDS011;63511;49.346;8.798;2022-11-21T04:52:53;7.00;;;0.88;;
61383;SDS011;63511;49.346;8.798;2022-11-21T04:55:22;1.48;;;0.68;;
61383;SDS011;63511;49.346;8.798;2022-11-21T04:57:51;5.80;;;0.90;;
61383;SDS011;63511;49.346;8.798;2022-11-21T05:00:17;2.47;;;0.57;;
61383;SDS011;63511;49.346;8.798;2022-11-21T05:02:45;2.58;;;0.50;;
61383;SDS011;63511;49.346;8.798;2022-11-21T05:05:10;3.75;;;0.65;;
61383;SDS011;63511;49.346;8.798;2022-11-21T05:07:36;2.95;;;1.05;;
61383;SDS011;63511;49.346;8.798;2022-11-21T05:10:02;21.75;;;3.03;;
61383;SDS011;63511;49.346;8.798;2022-11-21T05:12:28;3.45;;;0.77;;
61383;SDS011;63511;49.346;8.798;2022-11-21T05:15:12;1.23;;;0.52;;
61383;SDS011;63511;49.346;8.798;2022-11-21T05:17:37;2.53;;;0.80;;
61383;SDS011;63511;49.346;8.798;2022-11-21T05:20:02;3.45;;;0.57;;
61383;SDS011;63511;49.346;8.798;2022-11-21T05:22:30;0.60;;;0.57;;
61383;SDS011;63511;49.346;8.798;2022-11-21T05:24:56;1.27;;;0.75;;
61383;SDS011;63511;49.346;8.798;2022-11-21T05:27:21;5.50;;;1.10;;
61383;SDS011;63511;49.346;8.798;2022-11-21T05:29:47;2.13;;;0.70;;
61383;SDS011;63511;49.346;8.798;2022-11-21T05:32:14;1.35;;;0.70;;
61383;SDS011;63511;49.346;8.798;2022-11-21T05:34:42;4.40;;;0.73;;
61383;SDS011;63511;49.346;8.798;2022-11-21T05:37:07;1.95;;;0.47;;
61383;SDS011;63511;49.346;8.798;2022-11-21T05:39:34;4.72;;;2.03;;
61383;SDS011;63511;49.346;8.798;2022-11-21T05:42:00;3.15;;;1.63;;
61383;SDS011;63511;49.346;8.798;2022-11-21T05:44:27;4.03;;;1.33;;
61383;SDS011;63511;49.346;8.798;2022-11-21T05:46:52;7.43;;;3.55;;
61383;SDS011;63511;49.346;8.798;2022-11-21T05:49:20;3.35;;;1.83;;
61383;SDS011;63511;49.346;8.798;2022-11-21T05:51:45;6.65;;;1.80;;
61383;SDS011;63511;49.346;8.798;2022-11-21T05:54:13;10.15;;;1.38;;
61383;SDS011;63511;49.346;8.798;2022-11-21T05:56:39;1.48;;;0.90;;
61383;SDS011;63511;49.346;8.798;2022-11-21T05:59:07;3.85;;;1.00;;
61383;SDS011;63511;49.346;8.798;2022-11-21T06:01:36;5.40;;;1.38;;
61383;SDS011;63511;49.346;8.798;2022-11-21T06:04:21;5.22;;;1.10;;
61383;SDS011;63511;49.346;8.798;2022-11-21T06:06:46;4.22;;;1.70;;
61383;SDS011;63511;49.346;8.798;2022-11-21T06:09:12;9.05;;;2.22;;
61383;SDS011;63511;49.346;8.798;2022-11-21T06:11:39;8.05;;;2.22;;
61383;SDS011;63511;49.346;8.798;2022-11-21T06:14:05;10.15;;;3.38;;
61383;SDS011;63511;49.346;8.798;2022-11-21T06:16:32;7.88;;;2.80;;
61383;SDS011;63511;49.346;8.798;2022-11-21T06:18:58;6.65;;;2.90;;
61383;SDS011;63511;49.346;8.798;2022-11-21T06:21:24;9.35;;;2.38;;
61383;SDS011;63511;49.346;8.798;2022-11-21T06:23:54;3.33;;;1.43;;
61383;SDS011;63511;49.346;8.798;2022-11-21T06:26:21;5.63;;;1.70;;
61383;SDS011;63511;49.346;8.798;2022-11-21T06:28:51;12.40;;;2.28;;
61383;SDS011;63511;49.346;8.798;2022-11-21T06:31:19;6.43;;;1.80;;
61383;SDS011;63511;49.346;8.798;2022-11-21T06:33:49;11.18;;;1.90;;
61383;SDS011;63511;49.346;8.798;2022-11-21T06:36:20;6.18;;;1.70;;
61383;SDS011;63511;49.346;8.798;2022-11-21T06:38:46;7.50;;;1.88;;
61383;SDS011;63511;49.346;8.798;2022-11-21T06:41:19;7.55;;;1.65;;
61383;SDS011;63511;49.346;8.798;2022-11-21T06:43:46;9.55;;;1.50;;
61383;SDS011;63511;49.346;8.798;2022-11-21T06:46:14;10.98;;;1.58;;
61383;SDS011;63511;49.346;8.798;2022-11-21T06:48:40;10.13;;;1.42;;
61383;SDS011;63511;49.346;8.798;2022-11-21T06:51:21;8.63;;;1.63;;
61383;SDS011;63511;49.346;8.798;2022-11-21T06:53:51;1.77;;;1.17;;
61383;SDS011;63511;49.346;8.798;2022-11-21T06:56:21;8.55;;;1.65;;
61383;SDS011;63511;49.346;8.798;2022-11-21T06:58:50;12.40;;;2.22;;
61383;SDS011;63511;49.346;8.798;2022-11-21T07:01:16;8.80;;;2.38;;
61383;SDS011;63511;49.346;8.798;2022-11-21T07:03:41;7.00;;;1.58;;
61383;SDS011;63511;49.346;8.798;2022-11-21T07:06:11;10.43;;;1.73;;
61383;SDS011;63511;49.346;8.798;2022-11-21T07:08:37;12.13;;;2.08;;
61383;SDS011;63511;49.346;8.798;2022-11-21T07:11:07;10.43;;;2.22;;
61383;SDS011;63511;49.346;8.798;2022-11-21T07:13:34;6.60;;;1.63;;
61383;SDS011;63511;49.346;8.798;2022-11-21T07:16:05;8.57;;;1.90;;
61383;SDS011;63511;49.346;8.798;2022-11-21T07:18:34;12.90;;;1.70;;
61383;SDS011;63511;49.346;8.798;2022-11-21T07:21:01;9.27;;;1.38;;
61383;SDS011;63511;49.346;8.798;2022-11-21T07:23:31;5.95;;;1.80;;
61383;SDS011;63511;49.346;8.798;2022-11-21T07:26:04;5.97;;;1.60;;
61383;SDS011;63511;49.346;8.798;2022-11-21T07:28:30;7.47;;;1.80;;
61383;SDS011;63511;49.346;8.798;2022-11-21T07:30:57;8.43;;;1.48;;
61383;SDS011;63511;49.346;8.798;2022-11-21T07:33:24;6.63;;;1.70;;
61383;SDS011;63511;49.346;8.798;2022-11-21T07:35:49;7.07;;;2.58;;
61383;SDS011;63511;49.346;8.798;2022-11-21T07:38:19;12.20;;;2.25;;
61383;SDS011;63511;49.346;8.798;2022-11-21T07:40:44;11.32;;;2.22;;
61383;SDS011;63511;49.346;8.798;2022-11-21T07:43:10;8.35;;;1.90;;
61383;SDS011;63511;49.346;8.798;2022-11-21T07:45:35;9.02;;;1.77;;
61383;SDS011;63511;49.346;8.798;2022-11-21T07:48:04;13.95;;;1.75;;
61383;SDS011;63511;49.346;8.798;2022-11-21T07:50:33;6.50;;;2.05;;
61383;SDS011;63511;49.346;8.798;2022-11-21T07:52:59;15.35;;;3.22;;
61383;SDS011;63511;49.346;8.798;2022-11-21T07:55:25;7.60;;;2.30;;
61383;SDS011;63511;49.346;8.798;2022-11-21T07:58:06;9.77;;;1.90;;
61383;SDS011;63511;49.346;8.798;2022-11-21T08:00:34;9.90;;;2.10;;
61383;SDS011;63511;49.346;8.798;2022-11-21T08:03:00;5.55;;;1.77;;
61383;SDS011;63511;49.346;8.798;2022-11-21T08:05:27;8.90;;;1.90;;
61383;SDS011;63511;49.346;8.798;2022-11-21T08:07:52;12.68;;;1.85;;
61383;SDS011;63511;49.346;8.798;2022-11-21T08:10:20;6.60;;;1.75;;
61383;SDS011;63511;49.346;8.798;2022-11-21T08:12:45;7.65;;;1.90;;
61383;SDS011;63511;49.346;8.798;2022-11-21T08:15:11;5.18;;;1.42;;
61383;SDS011;63511;49.346;8.798;2022-11-21T08:17:37;9.32;;;1.70;;
61383;SDS011;63511;49.346;8.798;2022-11-21T08:20:03;7.75;;;1.40;;
61383;SDS011;63511;49.346;8.798;2022-11-21T08:22:36;9.95;;;1.65;;
61383;SDS011;63511;49.346;8.798;2022-11-21T08:27:33;8.98;;;2.13;;
61383;SDS011;63511;49.346;8.798;2022-11-21T08:30:03;9.65;;;3.35;;
61383;SDS011;63511;49.346;8.798;2022-11-21T08:32:32;4.68;;;1.95;;
61383;SDS011;63511;49.346;8.798;2022-11-21T08:34:58;6.97;;;1.45;;
61383;SDS011;63511;49.346;8.798;2022-11-21T08:37:23;8.05;;;1.52;;
61383;SDS011;63511;49.346;8.798;2022-11-21T08:39:48;11.88;;;1.92;;
61383;SDS011;63511;49.346;8.798;2022-11-21T08:42:13;8.73;;;2.10;;
61383;SDS011;63511;49.346;8.798;2022-11-21T08:44:41;10.88;;;2.10;;
61383;SDS011;63511;49.346;8.798;2022-11-21T08:47:07;6.20;;;1.95;;
61383;SDS011;63511;49.346;8.798;2022-11-21T08:49:32;5.10;;;1.77;;
61383;SDS011;63511;49.346;8.798;2022-11-21T08:52:00;4.75;;;1.77;;
61383;SDS011;63511;49.346;8.798;2022-11-21T08:54:27;5.80;;;1.55;;
61383;SDS011;63511;49.346;8.798;2022-11-21T08:56:53;10.75;;;2.10;;
61383;SDS011;63511;49.346;8.798;2022-11-21T08:59:20;6.35;;;1.90;;
61383;SDS011;63511;49.346;8.798;2022-11-21T09:01:45;9.25;;;1.70;;
61383;SDS011;63511;49.346;8.798;2022-11-21T09:04:11;5.45;;;1.70;;
61383;SDS011;63511;49.346;8.798;2022-11-21T09:06:38;11.68;;;1.52;;
61383;SDS011;63511;49.346;8.798;2022-11-21T09:09:04;5.30;;;1.92;;
61383;SDS011;63511;49.346;8.798;2022-11-21T09:11:30;8.50;;;1.90;;
61383;SDS011;63511;49.346;8.798;2022-11-21T09:13:55;3.78;;;1.77;;
61383;SDS011;63511;49.346;8.798;2022-11-21T09:16:41;10.30;;;2.13;;
61383;SDS011;63511;49.346;8.798;2022-11-21T09:19:25;4.40;;;1.95;;
61383;SDS011;63511;49.346;8.798;2022-11-21T09:21:51;12.77;;;2.40;;
61383;SDS011;63511;49.346;8.798;2022-11-21T09:24:19;7.88;;;1.70;;
61383;SDS011;63511;49.346;8.798;2022-11-21T09:26:44;8.75;;;1.80;;
61383;SDS011;63511;49.346;8.798;2022-11-21T09:29:12;9.52;;;2.10;;
61383;SDS011;63511;49.346;8.798;2022-11-21T09:31:43;5.75;;;1.67;;
61383;SDS011;63511;49.346;8.798;2022-11-21T09:34:10;5.50;;;1.70;;
61383;SDS011;63511;49.346;8.798;2022-11-21T09:36:36;6.85;;;1.90;;
61383;SDS011;63511;49.346;8.798;2022-11-21T09:39:04;10.85;;;1.85;;
61383;SDS011;63511;49.346;8.798;2022-11-21T09:46:52;5.03;;;1.00;;
61383;SDS011;63511;49.346;8.798;2022-11-21T09:49:26;8.65;;;1.50;;
61383;SDS011;63511;49.346;8.798;2022-11-21T09:51:58;5.47;;;1.40;;
61383;SDS011;63511;49.346;8.798;2022-11-21T09:54:27;5.20;;;1.98;;
61383;SDS011;63511;49.346;8.798;2022-11-21T09:56:57;8.77;;;3.38;;
61383;SDS011;63511;49.346;8.798;2022-11-21T09:59:28;7.40;;;2.30;;
61383;SDS011;63511;49.346;8.798;2022-11-21T10:02:01;8.25;;;1.98;;
61383;SDS011;63511;49.346;8.798;2022-11-21T10:04:34;11.60;;;1.42;;
61383;SDS011;63511;49.346;8.798;2022-11-21T10:07:07;12.18;;;2.05;;
61383;SDS011;63511;49.346;8.798;2022-11-21T10:15:29;9.38;;;2.30;;
61383;SDS011;63511;49.346;8.798;2022-11-21T10:29:35;19.00;;;7.75;;
61383;SDS011;63511;49.346;8.798;2022-11-21T10:32:12;7.32;;;1.75;;
61383;SDS011;63511;49.346;8.798;2022-11-21T10:34:45;9.50;;;1.92;;
61383;SDS011;63511;49.346;8.798;2022-11-21T10:37:29;7.20;;;2.35;;
61383;SDS011;63511;49.346;8.798;2022-11-21T10:40:02;7.38;;;1.60;;
61383;SDS011;63511;49.346;8.798;2022-11-21T10:42:55;8.50;;;1.40;;
61383;SDS011;63511;49.346;8.798;2022-11-21T10:45:23;9.05;;;1.63;;
61383;SDS011;63511;49.346;8.798;2022-11-21T10:47:51;12.25;;;2.22;;
61383;SDS011;63511;49.346;8.798;2022-11-21T10:53:27;7.85;;;2.13;;
61383;SDS011;63511;49.346;8.798;2022-11-21T10:56:14;6.13;;;1.45;;
61383;SDS011;63511;49.346;8.798;2022-11-21T10:58:50;7.03;;;2.05;;
61383;SDS011;63511;49.346;8.798;2022-11-21T11:04:03;10.30;;;1.90;;
61383;SDS011;63511;49.346;8.798;2022-11-21T11:06:42;4.55;;;1.50;;
61383;SDS011;63511;49.346;8.798;2022-11-21T11:09:29;13.23;;;3.20;;
61383;SDS011;63511;49.346;8.798;2022-11-21T11:14:51;7.93;;;1.58;;
61383;SDS011;63511;49.346;8.798;2022-11-21T11:17:26;8.23;;;1.55;;
61383;SDS011;63511;49.346;8.798;2022-11-21T11:20:04;6.97;;;1.83;;
61383;SDS011;63511;49.346;8.798;2022-11-21T11:22:50;9.93;;;2.15;;
61383;SDS011;63511;49.346;8.798;2022-11-21T11:25:17;9.13;;;1.45;;
61383;SDS011;63511;49.346;8.798;2022-11-21T11:27:46;7.68;;;1.95;;
61383;SDS011;63511;49.346;8.798;2022-11-21T11:30:14;10.70;;;2.35;;
61383;SDS011;63511;49.346;8.798;2022-11-21T11:32:41;6.15;;;1.45;;
61383;SDS011;63511;49.346;8.798;2022-11-21T11:37:41;8.00;;;1.88;;
61383;SDS011;63511;49.346;8.798;2022-11-21T11:48:22;14.18;;;2.15;;
61383;SDS011;63511;49.346;8.798;2022-11-21T11:50:55;14.80;;;2.30;;
61383;SDS011;63511;49.346;8.798;2022-11-21T11:53:27;16.35;;;2.35;;
61383;SDS011;63511;49.346;8.798;2022-11-21T11:58:40;13.25;;;1.70;;
61383;SDS011;63511;49.346;8.798;2022-11-21T12:07:17;6.70;;;1.75;;
61383;SDS011;63511;49.346;8.798;2022-11-21T12:15:45;11.57;;;2.00;;
61383;SDS011;63511;49.346;8.798;2022-11-21T12:23:36;13.52;;;2.00;;
61383;SDS011;63511;49.346;8.798;2022-11-21T12:42:58;10.30;;;2.58;;
61383;SDS011;63511;49.346;8.798;2022-11-21T12:45:41;8.02;;;2.08;;
61383;SDS011;63511;49.346;8.798;2022-11-21T12:51:38;11.25;;;1.38;;
61383;SDS011;63511;49.346;8.798;2022-11-21T13:02:12;13.90;;;2.92;;
61383;SDS011;63511;49.346;8.798;2022-11-21T13:04:49;10.05;;;2.17;;
61383;SDS011;63511;49.346;8.798;2022-11-21T13:07:15;6.28;;;2.50;;
61383;SDS011;63511;49.346;8.798;2022-11-21T13:09:46;8.18;;;2.03;;
61383;SDS011;63511;49.346;8.798;2022-11-21T13:17:42;9.85;;;2.03;;
61383;SDS011;63511;49.346;8.798;2022-11-21T13:43:39;12.13;;;1.53;;
61383;SDS011;63511;49.346;8.798;2022-11-21T13:45:49;6.75;;;1.45;;
61383;SDS011;63511;49.346;8.798;2022-11-21T13:48:25;19.67;;;3.08;;
61383;SDS011;63511;49.346;8.798;2022-11-21T14:04:54;15.13;;;3.80;;
61383;SDS011;63511;49.346;8.798;2022-11-21T14:07:29;13.50;;;2.25;;
61383;SDS011;63511;49.346;8.798;2022-11-21T14:10:00;11.35;;;2.17;;
61383;SDS011;63511;49.346;8.798;2022-11-21T14:22:50;9.90;;;1.83;;
61383;SDS011;63511;49.346;8.798;2022-11-21T14:25:21;18.90;;;3.00;;
61383;SDS011;63511;49.346;8.798;2022-11-21T14:27:53;11.70;;;3.03;;
61383;SDS011;63511;49.346;8.798;2022-11-21T14:30:39;12.70;;;2.78;;
61383;SDS011;63511;49.346;8.798;2022-11-21T14:35:56;10.45;;;3.30;;
61383;SDS011;63511;49.346;8.798;2022-11-21T14:38:24;19.25;;;3.40;;
61383;SDS011;63511;49.346;8.798;2022-11-21T14:46:23;36.72;;;7.18;;
61383;SDS011;63511;49.346;8.798;2022-11-21T14:48:49;21.25;;;4.05;;
61383;SDS011;63511;49.346;8.798;2022-11-21T14:51:20;20.25;;;4.63;;
61383;SDS011;63511;49.346;8.798;2022-11-21T14:53:48;17.15;;;3.25;;
61383;SDS011;63511;49.346;8.798;2022-11-21T14:56:23;6.78;;;2.25;;
61383;SDS011;63511;49.346;8.798;2022-11-21T14:58:51;15.73;;;4.38;;
61383;SDS011;63511;49.346;8.798;2022-11-21T15:01:22;12.95;;;2.90;;
61383;SDS011;63511;49.346;8.798;2022-11-21T15:03:58;13.90;;;2.50;;
61383;SDS011;63511;49.346;8.798;2022-11-21T15:06:28;18.98;;;3.25;;
61383;SDS011;63511;49.346;8.798;2022-11-21T15:09:05;16.58;;;2.83;;
61383;SDS011;63511;49.346;8.798;2022-11-21T15:14:05;12.02;;;1.98;;
61383;SDS011;63511;49.346;8.798;2022-11-21T15:16:54;14.45;;;2.45;;
61383;SDS011;63511;49.346;8.798;2022-11-21T15:19:25;9.85;;;1.98;;
61383;SDS011;63511;49.346;8.798;2022-11-21T15:21:56;11.18;;;2.60;;
61383;SDS011;63511;49.346;8.798;2022-11-21T15:26:54;4.68;;;1.67;;
61383;SDS011;63511;49.346;8.798;2022-11-21T15:29:21;14.65;;;1.88;;
61383;SDS011;63511;49.346;8.798;2022-11-21T15:32:05;17.42;;;3.67;;
61383;SDS011;63511;49.346;8.798;2022-11-21T15:34:31;12.75;;;3.10;;
61383;SDS011;63511;49.346;8.798;2022-11-21T15:39:32;12.38;;;2.60;;
61383;SDS011;63511;49.346;8.798;2022-11-21T15:47:38;18.75;;;4.18;;
61383;SDS011;63511;49.346;8.798;2022-11-21T15:50:06;14.80;;;3.22;;
61383;SDS011;63511;49.346;8.798;2022-11-21T15:52:44;11.63;;;2.08;;
61383;SDS011;63511;49.346;8.798;2022-11-21T15:55:11;12.55;;;2.40;;
61383;SDS011;63511;49.346;8.798;2022-11-21T15:57:42;6.07;;;1.63;;
61383;SDS011;63511;49.346;8.798;2022-11-21T16:00:08;12.80;;;2.28;;
61383;SDS011;63511;49.346;8.798;2022-11-21T16:02:36;8.98;;;1.92;;
61383;SDS011;63511;49.346;8.798;2022-11-21T16:05:03;9.23;;;2.55;;
61383;SDS011;63511;49.346;8.798;2022-11-21T16:07:29;15.02;;;5.88;;
61383;SDS011;63511;49.346;8.798;2022-11-21T16:09:54;12.23;;;3.53;;
61383;SDS011;63511;49.346;8.798;2022-11-21T16:12:20;24.92;;;3.50;;
61383;SDS011;63511;49.346;8.798;2022-11-21T16:14:45;17.92;;;3.65;;
61383;SDS011;63511;49.346;8.798;2022-11-21T16:17:11;10.18;;;2.97;;
61383;SDS011;63511;49.346;8.798;2022-11-21T16:19:36;9.52;;;3.10;;
61383;SDS011;63511;49.346;8.798;2022-11-21T16:22:01;9.00;;;2.83;;
61383;SDS011;63511;49.346;8.798;2022-11-21T16:24:27;14.98;;;3.42;;
61383;SDS011;63511;49.346;8.798;2022-11-21T16:26:52;19.35;;;3.60;;
61383;SDS011;63511;49.346;8.798;2022-11-21T16:29:19;10.27;;;4.13;;
61383;SDS011;63511;49.346;8.798;2022-11-21T16:31:48;18.30;;;4.35;;
61383;SDS011;63511;49.346;8.798;2022-11-21T16:34:19;21.35;;;4.72;;
61383;SDS011;63511;49.346;8.798;2022-11-21T16:36:46;13.18;;;3.30;;
61383;SDS011;63511;49.346;8.798;2022-11-21T16:39:11;12.80;;;3.95;;
61383;SDS011;63511;49.346;8.798;2022-11-21T16:41:37;16.73;;;4.95;;
61383;SDS011;63511;49.346;8.798;2022-11-21T16:44:04;13.68;;;4.75;;
61383;SDS011;63511;49.346;8.798;2022-11-21T16:46:42;12.32;;;3.90;;
61383;SDS011;63511;49.346;8.798;2022-11-21T16:49:09;19.02;;;3.75;;
61383;SDS011;63511;49.346;8.798;2022-11-21T16:51:36;16.00;;;3.42;;
61383;SDS011;63511;49.346;8.798;2022-11-21T16:54:04;12.15;;;2.88;;
61383;SDS011;63511;49.346;8.798;2022-11-21T16:56:29;12.07;;;3.60;;
61383;SDS011;63511;49.346;8.798;2022-11-21T16:58:54;11.40;;;3.47;;
61383;SDS011;63511;49.346;8.798;2022-11-21T17:01:24;12.38;;;4.25;;
61383;SDS011;63511;49.346;8.798;2022-11-21T17:03:50;15.87;;;3.93;;
61383;SDS011;63511;49.346;8.798;2022-11-21T17:06:17;17.83;;;4.72;;
61383;SDS011;63511;49.346;8.798;2022-11-21T17:08:50;18.02;;;6.03;;
61383;SDS011;63511;49.346;8.798;2022-11-21T17:11:23;17.50;;;7.40;;
61383;SDS011;63511;49.346;8.798;2022-11-21T17:13:55;20.48;;;8.10;;
61383;SDS011;63511;49.346;8.798;2022-11-21T17:16:23;11.98;;;5.60;;
61383;SDS011;63511;49.346;8.798;2022-11-21T17:18:55;19.50;;;6.28;;
61383;SDS011;63511;49.346;8.798;2022-11-21T17:21:22;21.45;;;5.30;;
61383;SDS011;63511;49.346;8.798;2022-11-21T17:23:48;14.60;;;4.57;;
61383;SDS011;63511;49.346;8.798;2022-11-21T17:26:22;10.18;;;2.83;;
61383;SDS011;63511;49.346;8.798;2022-11-21T17:28:50;17.80;;;3.15;;
61383;SDS011;63511;49.346;8.798;2022-11-21T17:31:16;10.00;;;4.07;;
61383;SDS011;63511;49.346;8.798;2022-11-21T17:33:41;16.27;;;3.13;;
61383;SDS011;63511;49.346;8.798;2022-11-21T17:36:11;15.32;;;5.80;;
61383;SDS011;63511;49.346;8.798;2022-11-21T17:38:40;27.42;;;11.60;;
61383;SDS011;63511;49.346;8.798;2022-11-21T17:41:08;20.65;;;10.60;;
61383;SDS011;63511;49.346;8.798;2022-11-21T17:43:35;16.00;;;6.70;;
61383;SDS011;63511;49.346;8.798;2022-11-21T17:46:02;39.53;;;18.20;;
61383;SDS011;63511;49.346;8.798;2022-11-21T17:48:30;27.48;;;12.65;;
61383;SDS011;63511;49.346;8.798;2022-11-21T17:51:00;24.77;;;12.18;;
61383;SDS011;63511;49.346;8.798;2022-11-21T17:53:29;24.33;;;6.82;;
61383;SDS011;63511;49.346;8.798;2022-11-21T17:55:58;18.52;;;6.05;;
61383;SDS011;63511;49.346;8.798;2022-11-21T17:58:24;20.38;;;9.45;;